createdAt,value
2023-03-31T00:00:12.323Z,1.40
2023-03-31T00:01:14.966Z,1.40
2023-03-31T00:02:17.307Z,1.47
2023-03-31T00:03:24.389Z,1.30
2023-03-31T00:04:28.898Z,1.60
2023-03-31T00:05:33.648Z,1.43
2023-03-31T00:06:42.139Z,1.30
2023-03-31T00:07:46.299Z,1.60
2023-03-31T00:08:52.580Z,1.40
2023-03-31T00:10:04.011Z,1.20
2023-03-31T00:11:12.987Z,1.23
2023-03-31T00:12:16.871Z,1.50
2023-03-31T00:13:19.191Z,1.60
2023-03-31T00:14:21.588Z,1.27
2023-03-31T00:15:24.316Z,1.40
2023-03-31T00:16:26.913Z,1.60
2023-03-31T00:17:29.232Z,1.50
2023-03-31T00:18:31.965Z,1.40
2023-03-31T00:19:34.427Z,1.10
2023-03-31T00:20:38.287Z,1.23
2023-03-31T00:21:42.922Z,1.10
2023-03-31T00:22:48.096Z,1.43
2023-03-31T00:23:55.153Z,1.20
2023-03-31T00:24:57.438Z,1.20
2023-03-31T00:25:59.711Z,1.20
2023-03-31T00:27:04.080Z,1.33
2023-03-31T00:28:06.907Z,1.60
2023-03-31T00:29:12.421Z,1.47
2023-03-31T00:30:15.842Z,1.30
2023-03-31T00:31:21.494Z,1.30
2023-03-31T00:32:23.879Z,1.30
2023-03-31T00:33:28.086Z,1.10
2023-03-31T00:34:30.986Z,1.30
2023-03-31T00:35:39.506Z,1.20
2023-03-31T00:36:46.079Z,1.37
2023-03-31T00:37:48.494Z,1.47
2023-03-31T00:38:51.822Z,1.30
2023-03-31T00:39:55.703Z,1.33
2023-03-31T00:40:59.411Z,1.30
2023-03-31T00:42:05.105Z,1.40
2023-03-31T00:43:37.523Z,1.57
2023-03-31T00:45:18.621Z,1.23
2023-03-31T00:46:31.060Z,1.30
2023-03-31T00:47:34.992Z,1.47
2023-03-31T00:48:38.477Z,1.33
2023-03-31T00:49:45.832Z,1.33
2023-03-31T00:50:54.010Z,1.40
2023-03-31T00:52:02.713Z,1.47
2023-03-31T00:53:14.707Z,1.30
2023-03-31T00:54:21.808Z,1.13
2023-03-31T00:55:31.026Z,1.37
2023-03-31T00:56:38.900Z,1.23
2023-03-31T00:57:42.800Z,1.83
2023-03-31T00:58:47.286Z,1.60
2023-03-31T00:59:54.013Z,1.33
2023-03-31T01:00:58.474Z,1.20
2023-03-31T01:02:03.263Z,1.70
2023-03-31T01:03:10.434Z,1.40
2023-03-31T01:04:15.087Z,1.50
2023-03-31T01:05:21.622Z,1.40
2023-03-31T01:06:25.528Z,1.30
2023-03-31T01:07:38.373Z,1.10
2023-03-31T01:08:42.884Z,1.40
2023-03-31T01:09:47.595Z,1.17
2023-03-31T01:11:06.743Z,1.30
2023-03-31T01:12:11.219Z,1.30
2023-03-31T01:13:15.962Z,1.27
2023-03-31T01:14:18.292Z,1.57
2023-03-31T01:15:21.036Z,1.50
2023-03-31T01:16:23.467Z,1.23
2023-03-31T01:17:28.697Z,1.30
2023-03-31T01:18:35.325Z,1.30
2023-03-31T01:19:57.009Z,1.43
2023-03-31T01:21:40.068Z,1.30
2023-03-31T01:22:53.154Z,1.53
2023-03-31T01:24:07.877Z,1.47
2023-03-31T01:25:43.623Z,1.10
2023-03-31T01:27:01.800Z,1.33
2023-03-31T01:28:27.064Z,1.20
2023-03-31T01:29:51.382Z,1.60
2023-03-31T01:31:12.649Z,1.40
2023-03-31T01:32:21.593Z,1.30
2023-03-31T01:33:53.533Z,1.40
2023-03-31T01:35:21.261Z,1.60
2023-03-31T01:36:49.362Z,1.23
2023-03-31T01:38:25.117Z,1.33
2023-03-31T01:40:12.099Z,1.57
2023-03-31T01:41:18.594Z,1.33
2023-03-31T01:42:54.695Z,1.37
2023-03-31T01:44:05.201Z,1.60
2023-03-31T01:45:26.445Z,1.50
2023-03-31T01:46:35.754Z,1.50
2023-03-31T01:47:50.469Z,1.43
2023-03-31T01:48:58.771Z,1.40
2023-03-31T01:50:09.997Z,1.60
2023-03-31T01:51:22.941Z,1.60
2023-03-31T01:52:28.224Z,1.47
2023-03-31T01:53:41.669Z,1.50
2023-03-31T01:55:15.704Z,1.20
2023-03-31T01:56:41.902Z,1.37
2023-03-31T01:57:53.256Z,1.33
2023-03-31T01:59:09.628Z,1.23
2023-03-31T02:00:14.761Z,1.40
2023-03-31T02:01:31.567Z,1.20
2023-03-31T02:02:41.176Z,1.30
2023-03-31T02:03:52.157Z,1.10
2023-03-31T02:05:05.592Z,1.30
2023-03-31T02:06:14.822Z,1.40
2023-03-31T02:07:32.297Z,1.50
2023-03-31T02:08:41.181Z,1.27
2023-03-31T02:09:49.473Z,1.23
2023-03-31T02:10:56.184Z,1.60
2023-03-31T02:12:00.434Z,1.40
2023-03-31T02:13:04.094Z,1.50
2023-03-31T02:14:12.826Z,1.43
2023-03-31T02:15:22.581Z,1.50
2023-03-31T02:16:28.200Z,1.50
2023-03-31T02:17:31.018Z,1.50
2023-03-31T02:18:38.534Z,1.37
2023-03-31T02:19:44.192Z,1.50
2023-03-31T02:20:50.081Z,1.13
2023-03-31T02:21:55.005Z,1.30
2023-03-31T02:22:58.290Z,1.40
2023-03-31T02:24:05.013Z,1.20
2023-03-31T02:25:12.282Z,1.20
2023-03-31T02:26:27.671Z,1.30
2023-03-31T02:27:36.415Z,1.43
2023-03-31T02:28:39.310Z,1.30
2023-03-31T02:29:42.462Z,1.67
2023-03-31T02:31:03.919Z,1.50
2023-03-31T02:32:16.611Z,1.40
2023-03-31T02:33:19.543Z,1.30
2023-03-31T02:34:21.959Z,1.27
2023-03-31T02:35:25.394Z,1.40
2023-03-31T02:36:28.289Z,1.27
2023-03-31T02:37:32.168Z,1.40
2023-03-31T02:38:39.621Z,1.50
2023-03-31T02:39:44.928Z,1.60
2023-03-31T02:40:48.611Z,1.50
2023-03-31T02:41:51.112Z,1.50
2023-03-31T02:42:55.371Z,1.57
2023-03-31T02:43:58.228Z,1.40
2023-03-31T02:45:27.478Z,1.43
2023-03-31T02:46:30.540Z,1.20
2023-03-31T02:47:36.910Z,1.40
2023-03-31T02:48:44.095Z,1.50
2023-03-31T02:49:53.105Z,1.60
2023-03-31T02:51:21.556Z,1.40
2023-03-31T02:52:45.639Z,1.40
2023-03-31T02:54:15.972Z,1.63
2023-03-31T02:56:09.000Z,1.40
2023-03-31T02:57:52.492Z,1.60
2023-03-31T02:59:21.597Z,1.50
2023-03-31T03:00:54.817Z,1.80
2023-03-31T03:02:12.057Z,1.50
2023-03-31T03:03:27.828Z,1.47
2023-03-31T03:04:53.654Z,1.53
2023-03-31T03:06:17.533Z,1.70
2023-03-31T03:08:07.930Z,1.60
2023-03-31T03:09:30.154Z,1.50
2023-03-31T03:11:12.878Z,1.50
2023-03-31T03:12:28.529Z,1.50
2023-03-31T03:13:50.178Z,1.60
2023-03-31T03:15:00.642Z,1.50
2023-03-31T03:16:19.510Z,1.40
2023-03-31T03:17:54.373Z,1.30
2023-03-31T03:19:04.908Z,1.37
2023-03-31T03:20:09.607Z,1.80
2023-03-31T03:21:11.849Z,1.40
2023-03-31T03:22:14.080Z,1.60
2023-03-31T03:23:17.236Z,1.20
2023-03-31T03:24:19.680Z,1.50
2023-03-31T03:25:22.034Z,1.43
2023-03-31T03:26:24.440Z,1.50
2023-03-31T03:27:26.712Z,1.77
2023-03-31T03:28:29.070Z,1.33
2023-03-31T03:29:31.742Z,1.77
2023-03-31T03:30:34.050Z,1.50
2023-03-31T03:31:37.603Z,1.20
2023-03-31T03:32:40.216Z,1.60
2023-03-31T03:33:43.672Z,1.60
2023-03-31T03:34:46.573Z,1.50
2023-03-31T03:35:49.406Z,1.80
2023-03-31T03:36:52.172Z,1.80
2023-03-31T03:37:54.431Z,1.50
2023-03-31T03:38:57.022Z,1.53
2023-03-31T03:39:59.312Z,1.50
2023-03-31T03:41:01.557Z,1.30
2023-03-31T03:42:04.312Z,1.70
2023-03-31T03:43:06.547Z,1.40
2023-03-31T03:44:08.818Z,1.27
2023-03-31T03:45:11.321Z,1.30
2023-03-31T03:46:13.913Z,1.17
2023-03-31T03:47:16.556Z,1.37
2023-03-31T03:48:19.766Z,1.60
2023-03-31T03:49:23.485Z,1.50
2023-03-31T03:50:25.732Z,1.60
2023-03-31T03:51:28.054Z,1.37
2023-03-31T03:52:30.301Z,1.57
2023-03-31T03:53:32.751Z,1.63
2023-03-31T03:54:35.059Z,1.30
2023-03-31T03:55:37.370Z,1.70
2023-03-31T03:56:39.742Z,1.57
2023-03-31T03:57:45.003Z,1.47
2023-03-31T03:58:48.658Z,1.53
2023-03-31T03:59:51.397Z,1.60
2023-03-31T04:00:53.736Z,1.33
2023-03-31T04:01:56.040Z,1.30
2023-03-31T04:02:58.371Z,1.30
2023-03-31T04:04:00.723Z,1.60
2023-03-31T04:05:08.135Z,1.20
2023-03-31T04:06:10.854Z,1.37
2023-03-31T04:07:14.349Z,1.47
2023-03-31T04:08:18.423Z,1.93
2023-03-31T04:09:20.862Z,1.50
2023-03-31T04:10:23.168Z,1.57
2023-03-31T04:11:26.230Z,1.60
2023-03-31T04:12:29.880Z,1.30
2023-03-31T04:13:32.127Z,1.17
2023-03-31T04:14:34.528Z,1.50
2023-03-31T04:15:37.066Z,1.90
2023-03-31T04:16:40.863Z,1.40
2023-03-31T04:17:54.077Z,1.30
2023-03-31T04:18:59.233Z,1.30
2023-03-31T04:20:09.686Z,1.40
2023-03-31T04:21:15.713Z,1.37
2023-03-31T04:22:20.856Z,1.40
2023-03-31T04:23:26.868Z,1.37
2023-03-31T04:24:33.460Z,1.40
2023-03-31T04:25:38.824Z,1.20
2023-03-31T04:26:44.037Z,1.40
2023-03-31T04:27:55.089Z,1.47
2023-03-31T04:29:00.440Z,1.33
2023-03-31T04:30:02.748Z,1.30
2023-03-31T04:31:10.149Z,1.70
2023-03-31T04:32:15.219Z,1.30
2023-03-31T04:33:17.763Z,1.30
2023-03-31T04:34:22.402Z,1.50
2023-03-31T04:35:28.089Z,1.47
2023-03-31T04:36:31.630Z,1.43
2023-03-31T04:37:35.109Z,1.40
2023-03-31T04:38:37.357Z,1.20
2023-03-31T04:39:40.910Z,1.33
2023-03-31T04:40:43.230Z,1.50
2023-03-31T04:41:45.661Z,1.30
2023-03-31T04:42:47.975Z,1.53
2023-03-31T04:43:50.656Z,1.60
2023-03-31T04:44:52.884Z,1.40
2023-03-31T04:45:55.457Z,1.70
2023-03-31T04:47:00.184Z,1.30
2023-03-31T04:48:02.760Z,1.70
2023-03-31T04:49:06.206Z,1.40
2023-03-31T04:50:11.199Z,1.80
2023-03-31T04:51:17.952Z,1.73
2023-03-31T04:52:20.246Z,1.80
2023-03-31T04:53:23.224Z,2.10
2023-03-31T04:54:26.189Z,2.10
2023-03-31T04:55:28.944Z,2.60
2023-03-31T04:56:31.279Z,3.27
2023-03-31T04:57:33.848Z,3.70
2023-03-31T04:58:36.139Z,6.33
2023-03-31T04:59:38.472Z,7.30
2023-03-31T05:00:40.723Z,7.93
2023-03-31T05:01:46.017Z,6.57
2023-03-31T05:02:48.407Z,5.23
2023-03-31T05:03:51.021Z,4.10
2023-03-31T05:04:53.344Z,3.23
2023-03-31T05:05:55.774Z,2.97
2023-03-31T05:06:58.105Z,2.90
2023-03-31T05:08:00.602Z,2.77
2023-03-31T05:09:03.038Z,2.97
2023-03-31T05:10:06.351Z,3.20
2023-03-31T05:11:08.799Z,3.57
2023-03-31T05:12:11.488Z,3.10
2023-03-31T05:13:13.784Z,3.43
2023-03-31T05:14:16.041Z,2.90
2023-03-31T05:15:18.911Z,3.00
2023-03-31T05:16:21.702Z,2.50
2023-03-31T05:17:24.116Z,2.50
2023-03-31T05:18:26.375Z,2.50
2023-03-31T05:19:28.927Z,2.33
2023-03-31T05:20:31.771Z,2.00
2023-03-31T05:21:34.092Z,2.20
2023-03-31T05:22:38.175Z,2.03
2023-03-31T05:23:41.337Z,2.10
2023-03-31T05:24:43.593Z,1.93
2023-03-31T05:25:48.074Z,2.00
2023-03-31T05:26:53.085Z,1.80
2023-03-31T05:27:56.823Z,1.80
2023-03-31T05:28:59.282Z,1.77
2023-03-31T05:30:02.689Z,1.80
2023-03-31T05:31:06.562Z,1.80
2023-03-31T05:32:08.962Z,1.93
2023-03-31T05:33:12.114Z,2.00
2023-03-31T05:34:15.457Z,1.97
2023-03-31T05:35:18.067Z,1.90
2023-03-31T05:36:20.508Z,1.60
2023-03-31T05:37:26.682Z,1.40
2023-03-31T05:38:29.472Z,1.73
2023-03-31T05:39:33.254Z,1.67
2023-03-31T05:40:35.618Z,1.63
2023-03-31T05:41:37.936Z,1.77
2023-03-31T05:42:40.315Z,1.30
2023-03-31T05:43:43.532Z,1.53
2023-03-31T05:44:46.262Z,1.43
2023-03-31T05:45:51.574Z,1.60
2023-03-31T05:46:54.598Z,1.87
2023-03-31T05:47:56.902Z,1.70
2023-03-31T05:48:59.213Z,1.63
2023-03-31T05:50:01.676Z,1.90
2023-03-31T05:51:04.574Z,1.70
2023-03-31T05:52:08.035Z,1.80
2023-03-31T05:53:10.668Z,1.63
2023-03-31T05:54:13.952Z,1.60
2023-03-31T05:55:17.175Z,1.57
2023-03-31T05:56:19.561Z,1.50
2023-03-31T05:57:21.820Z,1.43
2023-03-31T05:58:24.229Z,1.50
2023-03-31T05:59:27.732Z,1.30
2023-03-31T06:00:30.005Z,1.50
2023-03-31T06:01:32.754Z,1.50
2023-03-31T06:02:35.183Z,1.50
2023-03-31T06:03:41.814Z,1.57
2023-03-31T06:04:44.560Z,1.53
2023-03-31T06:05:54.246Z,1.53
2023-03-31T06:06:58.416Z,1.53
2023-03-31T06:08:00.825Z,1.33
2023-03-31T06:09:03.476Z,1.37
2023-03-31T06:10:09.108Z,1.50
2023-03-31T06:11:14.097Z,1.43
2023-03-31T06:12:16.893Z,1.60
2023-03-31T06:13:20.883Z,1.50
2023-03-31T06:14:23.614Z,1.50
2023-03-31T06:15:25.937Z,1.73
2023-03-31T06:16:29.273Z,1.30
2023-03-31T06:17:31.695Z,1.40
2023-03-31T06:18:35.725Z,1.30
2023-03-31T06:19:38.508Z,1.30
2023-03-31T06:20:42.065Z,1.57
2023-03-31T06:21:44.359Z,1.10
2023-03-31T06:22:46.713Z,1.40
2023-03-31T06:23:49.188Z,1.48
2023-03-31T06:24:51.731Z,1.38
2023-03-31T06:25:56.178Z,1.40
2023-03-31T06:26:58.966Z,1.23
2023-03-31T06:28:01.493Z,1.48
2023-03-31T06:29:04.827Z,1.30
2023-03-31T06:30:07.792Z,1.20
2023-03-31T06:31:12.929Z,1.25
2023-03-31T06:32:15.277Z,1.42
2023-03-31T06:33:17.547Z,1.38
2023-03-31T06:34:21.302Z,1.48
2023-03-31T06:35:26.485Z,1.15
2023-03-31T06:36:31.020Z,1.50
2023-03-31T06:37:33.390Z,1.30
2023-03-31T06:38:38.577Z,1.45
2023-03-31T06:39:40.894Z,1.70
2023-03-31T06:40:43.160Z,1.20
2023-03-31T06:41:45.481Z,1.20
2023-03-31T06:42:55.640Z,1.40
2023-03-31T06:43:57.971Z,1.60
2023-03-31T06:45:00.238Z,1.20
2023-03-31T06:46:02.643Z,1.10
2023-03-31T06:47:04.996Z,1.60
2023-03-31T06:48:07.324Z,1.20
2023-03-31T06:49:10.813Z,1.27
2023-03-31T06:50:13.980Z,1.38
2023-03-31T06:51:16.886Z,1.40
2023-03-31T06:52:19.132Z,1.20
2023-03-31T06:53:22.399Z,1.40
2023-03-31T06:54:24.683Z,1.50
2023-03-31T06:55:26.947Z,1.25
2023-03-31T06:56:29.320Z,1.50
2023-03-31T06:57:34.275Z,1.45
2023-03-31T06:58:36.777Z,1.90
2023-03-31T06:59:39.144Z,1.50
2023-03-31T07:00:41.679Z,1.40
2023-03-31T07:01:46.425Z,1.50
2023-03-31T07:02:48.990Z,1.40
2023-03-31T07:03:51.445Z,1.70
2023-03-31T07:04:53.793Z,1.40
2023-03-31T07:05:56.894Z,1.50
2023-03-31T07:06:59.786Z,1.60
2023-03-31T07:08:02.631Z,1.60
2023-03-31T07:09:06.012Z,1.80
2023-03-31T07:10:08.905Z,1.77
2023-03-31T07:11:11.914Z,1.48
2023-03-31T07:12:14.217Z,1.90
2023-03-31T07:13:18.080Z,1.70
2023-03-31T07:14:20.413Z,1.63
2023-03-31T07:15:23.199Z,1.50
2023-03-31T07:16:25.591Z,1.65
2023-03-31T07:17:28.036Z,1.35
2023-03-31T07:18:35.121Z,1.65
2023-03-31T07:19:38.190Z,1.70
2023-03-31T07:20:40.687Z,1.20
2023-03-31T07:21:42.947Z,1.23
2023-03-31T07:22:47.034Z,1.55
2023-03-31T07:23:49.700Z,1.63
2023-03-31T07:24:51.938Z,1.42
2023-03-31T07:25:55.660Z,1.45
2023-03-31T07:26:57.887Z,1.73
2023-03-31T07:28:00.334Z,1.52
2023-03-31T07:29:02.644Z,1.60
2023-03-31T07:30:10.596Z,1.50
2023-03-31T07:31:14.994Z,1.33
2023-03-31T07:32:17.393Z,1.50
2023-03-31T07:33:19.917Z,1.50
2023-03-31T07:34:22.324Z,1.40
2023-03-31T07:35:24.944Z,1.45
2023-03-31T07:36:27.557Z,1.45
2023-03-31T07:37:36.563Z,2.00
2023-03-31T07:38:40.278Z,1.63
2023-03-31T07:39:42.658Z,1.55
2023-03-31T07:40:49.041Z,1.48
2023-03-31T07:41:58.105Z,1.58
2023-03-31T07:43:00.712Z,1.80
2023-03-31T07:44:03.386Z,1.50
2023-03-31T07:45:07.808Z,1.42
2023-03-31T07:46:23.261Z,1.50
2023-03-31T07:47:26.466Z,1.67
2023-03-31T07:48:29.106Z,1.90
2023-03-31T07:49:35.637Z,1.60
2023-03-31T07:50:38.493Z,1.70
2023-03-31T07:51:46.583Z,1.25
2023-03-31T07:52:48.902Z,1.70
2023-03-31T07:53:52.745Z,1.90
2023-03-31T07:54:56.107Z,1.70
2023-03-31T07:55:58.412Z,1.45
2023-03-31T07:57:04.467Z,1.80
2023-03-31T07:58:06.928Z,1.52
2023-03-31T07:59:09.227Z,1.52
2023-03-31T08:00:12.816Z,1.88
2023-03-31T08:01:17.342Z,2.10
2023-03-31T08:02:19.950Z,1.60
2023-03-31T08:03:22.490Z,1.80
2023-03-31T08:04:25.446Z,2.00
2023-03-31T08:05:28.246Z,1.67
2023-03-31T08:06:30.744Z,1.83
2023-03-31T08:07:35.711Z,1.65
2023-03-31T08:08:38.719Z,1.55
2023-03-31T08:09:43.416Z,1.55
2023-03-31T08:10:45.872Z,1.70
2023-03-31T08:11:48.956Z,1.60
2023-03-31T08:12:51.390Z,1.88
2023-03-31T08:13:54.065Z,1.70
2023-03-31T08:14:56.443Z,1.50
2023-03-31T08:16:00.261Z,1.77
2023-03-31T08:17:02.650Z,1.80
2023-03-31T08:18:05.700Z,1.60
2023-03-31T08:19:08.048Z,1.48
2023-03-31T08:20:10.949Z,1.80
2023-03-31T08:21:13.480Z,1.88
2023-03-31T08:22:15.774Z,1.73
2023-03-31T08:23:18.057Z,1.73
2023-03-31T08:24:21.063Z,1.90
2023-03-31T08:25:24.160Z,1.80
2023-03-31T08:26:28.981Z,2.15
2023-03-31T08:27:41.624Z,1.75
2023-03-31T08:28:44.360Z,1.63
2023-03-31T08:29:46.719Z,1.83
2023-03-31T08:30:48.988Z,1.80
2023-03-31T08:31:51.846Z,1.80
2023-03-31T08:32:54.482Z,1.70
2023-03-31T08:33:57.581Z,1.70
2023-03-31T08:35:00.270Z,1.83
2023-03-31T08:36:09.493Z,1.73
2023-03-31T08:37:12.081Z,2.10
2023-03-31T08:38:14.761Z,1.95
2023-03-31T08:39:18.945Z,1.75
2023-03-31T08:40:26.258Z,2.05
2023-03-31T08:41:43.310Z,2.10
2023-03-31T08:42:49.693Z,1.98
2023-03-31T08:43:56.562Z,1.77
2023-03-31T08:45:08.486Z,1.85
2023-03-31T08:46:14.326Z,1.88
2023-03-31T08:47:22.424Z,2.15
2023-03-31T08:48:34.640Z,2.05
2023-03-31T08:49:52.295Z,2.00
2023-03-31T08:51:13.560Z,2.20
2023-03-31T08:52:31.862Z,2.08
2023-03-31T08:53:42.603Z,1.98
2023-03-31T08:54:55.360Z,1.67
2023-03-31T08:55:59.132Z,2.20
2023-03-31T08:57:02.336Z,1.80
2023-03-31T08:58:04.925Z,2.08
2023-03-31T08:59:16.970Z,1.70
2023-03-31T09:00:20.049Z,1.80
2023-03-31T09:01:54.644Z,1.90
2023-03-31T09:03:24.409Z,1.70
2023-03-31T09:04:51.923Z,1.95
2023-03-31T09:06:23.110Z,1.50
2023-03-31T09:07:35.060Z,1.90
2023-03-31T09:08:39.415Z,1.80
2023-03-31T09:09:56.566Z,1.90
2023-03-31T09:11:08.363Z,1.80
2023-03-31T09:12:16.804Z,2.10
2023-03-31T09:13:37.737Z,1.73
2023-03-31T09:15:02.476Z,1.80
2023-03-31T09:16:22.206Z,1.70
2023-03-31T09:17:44.714Z,1.70
2023-03-31T09:18:47.320Z,1.52
2023-03-31T09:19:56.706Z,1.75
2023-03-31T09:21:24.782Z,1.73
2023-03-31T09:22:33.306Z,1.50
2023-03-31T09:24:00.336Z,1.48
2023-03-31T09:25:15.082Z,1.42
2023-03-31T09:26:39.254Z,1.60
2023-03-31T09:27:44.445Z,1.90
2023-03-31T09:28:47.157Z,1.80
2023-03-31T09:29:53.555Z,1.80
2023-03-31T09:30:57.526Z,1.63
2023-03-31T09:32:17.121Z,1.52
2023-03-31T09:33:34.195Z,1.50
2023-03-31T09:34:37.705Z,1.60
2023-03-31T09:35:40.112Z,2.13
2023-03-31T09:36:43.117Z,1.70
2023-03-31T09:37:45.719Z,1.48
2023-03-31T09:38:48.878Z,1.70
2023-03-31T09:39:51.670Z,1.73
2023-03-31T09:40:57.083Z,1.48
2023-03-31T09:42:00.826Z,1.48
2023-03-31T09:43:24.374Z,1.25
2023-03-31T09:44:40.699Z,1.77
2023-03-31T09:45:57.605Z,1.45
2023-03-31T09:47:25.802Z,1.20
2023-03-31T09:48:33.421Z,1.27
2023-03-31T09:49:37.746Z,1.42
2023-03-31T09:50:47.138Z,1.50
2023-03-31T09:52:16.888Z,1.70
2023-03-31T09:53:32.834Z,1.70
2023-03-31T09:54:39.866Z,1.33
2023-03-31T09:55:48.149Z,1.30
2023-03-31T09:56:54.028Z,1.60
2023-03-31T09:57:56.534Z,1.60
2023-03-31T09:59:05.487Z,1.85
2023-03-31T10:00:16.924Z,1.40
2023-03-31T10:01:22.551Z,1.60
2023-03-31T10:02:36.128Z,1.50
2023-03-31T10:04:08.261Z,1.38
2023-03-31T10:05:27.264Z,1.30
2023-03-31T10:06:30.497Z,1.60
2023-03-31T10:07:33.177Z,1.17
2023-03-31T10:08:42.178Z,1.50
2023-03-31T10:09:44.483Z,1.65
2023-03-31T10:10:53.556Z,1.20
2023-03-31T10:11:57.817Z,1.42
2023-03-31T10:13:07.795Z,1.38
2023-03-31T10:14:15.256Z,1.30
2023-03-31T10:15:27.630Z,1.30
2023-03-31T10:16:29.927Z,1.30
2023-03-31T10:17:40.573Z,1.27
2023-03-31T10:18:52.684Z,1.40
2023-03-31T10:19:58.574Z,1.42
2023-03-31T10:21:02.363Z,1.60
2023-03-31T10:22:17.223Z,1.25
2023-03-31T10:23:28.956Z,1.50
2023-03-31T10:24:40.290Z,1.20
2023-03-31T10:25:46.527Z,1.38
2023-03-31T10:26:52.561Z,1.33
2023-03-31T10:27:57.308Z,1.27
2023-03-31T10:29:00.007Z,1.02
2023-03-31T10:30:05.435Z,1.30
2023-03-31T10:31:09.660Z,1.35
2023-03-31T10:32:23.392Z,1.20
2023-03-31T10:33:28.258Z,1.33
2023-03-31T10:34:31.942Z,1.20
2023-03-31T10:35:36.692Z,1.20
2023-03-31T10:36:44.797Z,1.30
2023-03-31T10:37:49.329Z,1.30
2023-03-31T10:38:53.176Z,1.17
2023-03-31T10:40:20.575Z,1.13
2023-03-31T10:41:27.590Z,1.40
2023-03-31T10:42:29.992Z,1.13
2023-03-31T10:43:43.370Z,1.10
2023-03-31T10:44:48.968Z,1.20
2023-03-31T10:46:03.212Z,1.30
2023-03-31T10:47:17.933Z,1.25
2023-03-31T10:48:31.659Z,1.30
2023-03-31T10:49:39.657Z,1.10
2023-03-31T10:50:43.213Z,1.05
2023-03-31T10:51:53.488Z,1.20
2023-03-31T10:53:04.359Z,1.27
2023-03-31T10:54:09.345Z,1.20
2023-03-31T10:55:14.891Z,1.40
2023-03-31T10:56:20.246Z,1.40
2023-03-31T10:57:34.450Z,1.20
2023-03-31T10:59:07.571Z,1.27
2023-03-31T11:00:36.373Z,1.30
2023-03-31T11:02:05.016Z,1.38
2023-03-31T11:03:26.345Z,1.30
2023-03-31T11:04:44.830Z,1.13
2023-03-31T11:05:52.490Z,1.10
2023-03-31T11:07:14.337Z,1.30
2023-03-31T11:08:44.566Z,1.20
2023-03-31T11:09:53.233Z,1.33
2023-03-31T11:11:09.705Z,1.40
2023-03-31T11:12:31.851Z,1.10
2023-03-31T11:13:44.707Z,1.15
2023-03-31T11:14:49.929Z,1.25
2023-03-31T11:16:05.003Z,1.13
2023-03-31T11:17:21.643Z,1.10
2023-03-31T11:18:39.148Z,1.20
2023-03-31T11:19:47.548Z,1.23
2023-03-31T11:20:52.769Z,1.27
2023-03-31T11:22:13.922Z,1.30
2023-03-31T11:23:49.827Z,1.30
2023-03-31T11:25:22.208Z,1.30
2023-03-31T11:26:54.555Z,1.20
2023-03-31T11:28:38.578Z,1.50
2023-03-31T11:29:48.949Z,1.10
2023-03-31T11:31:00.107Z,1.15
2023-03-31T11:32:41.407Z,1.20
2023-03-31T11:34:02.293Z,1.20
2023-03-31T11:35:16.726Z,1.50
2023-03-31T11:36:37.202Z,0.90
2023-03-31T11:37:54.877Z,1.25
2023-03-31T11:39:10.876Z,1.05
2023-03-31T11:40:36.761Z,1.40
2023-03-31T11:41:51.931Z,1.13
2023-03-31T11:42:59.342Z,1.48
2023-03-31T11:44:10.012Z,1.40
2023-03-31T11:45:37.948Z,1.40
2023-03-31T11:46:48.720Z,1.15
2023-03-31T11:47:55.719Z,1.27
2023-03-31T11:49:02.972Z,1.20
2023-03-31T11:50:15.218Z,1.35
2023-03-31T11:51:25.059Z,1.30
2023-03-31T11:52:35.655Z,1.40
2023-03-31T11:53:39.925Z,1.20
2023-03-31T11:55:06.078Z,1.50
2023-03-31T11:56:11.141Z,1.33
2023-03-31T11:57:20.063Z,1.30
2023-03-31T11:58:30.350Z,1.30
2023-03-31T11:59:34.438Z,1.50
2023-03-31T12:00:43.941Z,1.30
2023-03-31T12:02:15.637Z,1.40
2023-03-31T12:03:47.286Z,1.58
2023-03-31T12:04:54.172Z,1.20
2023-03-31T12:06:04.683Z,1.40
2023-03-31T12:07:32.392Z,1.40
2023-03-31T12:08:46.991Z,1.30
2023-03-31T12:10:14.198Z,1.20
2023-03-31T12:11:28.996Z,1.27
2023-03-31T12:12:35.642Z,1.50
2023-03-31T12:13:53.348Z,1.40
2023-03-31T12:15:09.704Z,1.70
2023-03-31T12:16:18.124Z,1.35
2023-03-31T12:17:26.273Z,1.50
2023-03-31T12:18:36.251Z,1.58
2023-03-31T12:19:56.781Z,1.40
2023-03-31T12:21:02.823Z,1.40
2023-03-31T12:22:19.040Z,1.40
2023-03-31T12:23:29.727Z,1.40
2023-03-31T12:24:33.448Z,1.42
2023-03-31T12:25:48.154Z,1.40
2023-03-31T12:26:57.972Z,1.50
2023-03-31T12:28:01.527Z,1.23
2023-03-31T12:29:12.916Z,1.40
2023-03-31T12:30:29.285Z,1.30
2023-03-31T12:31:33.432Z,1.38
2023-03-31T12:32:40.897Z,1.50
2023-03-31T12:33:58.759Z,1.30
2023-03-31T12:35:07.157Z,1.58
2023-03-31T12:36:28.279Z,1.60
2023-03-31T12:38:08.365Z,1.40
2023-03-31T12:40:08.307Z,1.50
2023-03-31T12:41:15.169Z,1.50
2023-03-31T12:42:48.424Z,1.60
2023-03-31T12:44:15.932Z,1.20
2023-03-31T12:45:32.188Z,1.60
2023-03-31T12:46:56.611Z,1.70
2023-03-31T12:48:23.648Z,1.70
2023-03-31T12:50:03.955Z,1.55
2023-03-31T12:51:37.784Z,1.40
2023-03-31T12:53:01.140Z,1.70
2023-03-31T12:54:20.901Z,1.70
2023-03-31T12:55:41.665Z,1.58
2023-03-31T12:57:15.646Z,1.60
2023-03-31T12:58:38.131Z,1.50
2023-03-31T12:59:42.850Z,1.67
2023-03-31T13:01:19.371Z,1.38
2023-03-31T13:02:25.051Z,1.80
2023-03-31T13:03:54.933Z,1.65
2023-03-31T13:04:57.458Z,1.80
2023-03-31T13:06:02.045Z,2.03
2023-03-31T13:07:17.299Z,1.92
2023-03-31T13:08:54.319Z,2.60
2023-03-31T13:10:17.289Z,2.50
2023-03-31T13:11:23.349Z,2.30
2023-03-31T13:12:28.645Z,2.30
2023-03-31T13:13:30.973Z,2.47
2023-03-31T13:14:40.468Z,2.50
2023-03-31T13:15:56.680Z,2.30
2023-03-31T13:17:27.406Z,2.00
2023-03-31T13:18:34.375Z,2.38
2023-03-31T13:19:37.689Z,2.30
2023-03-31T13:20:42.303Z,2.37
2023-03-31T13:21:59.021Z,2.20
2023-03-31T13:23:07.892Z,2.40
2023-03-31T13:24:10.172Z,2.60
2023-03-31T13:25:30.967Z,2.45
2023-03-31T13:26:49.004Z,2.90
2023-03-31T13:27:53.548Z,2.30
2023-03-31T13:29:16.837Z,2.70
2023-03-31T13:30:37.240Z,2.50
2023-03-31T13:32:01.483Z,2.37
2023-03-31T13:33:10.416Z,2.57
2023-03-31T13:34:13.150Z,2.50
2023-03-31T13:35:23.944Z,2.80
2023-03-31T13:36:33.640Z,2.80
2023-03-31T13:38:05.212Z,2.20
2023-03-31T13:39:34.052Z,2.40
2023-03-31T13:41:11.481Z,2.33
2023-03-31T13:42:22.658Z,2.23
2023-03-31T13:43:48.668Z,2.37
2023-03-31T13:45:05.947Z,2.50
2023-03-31T13:46:46.414Z,2.43
2023-03-31T13:48:14.196Z,2.40
2023-03-31T13:49:44.498Z,2.20
2023-03-31T13:51:18.368Z,2.17
2023-03-31T13:52:48.424Z,2.50
2023-03-31T13:54:25.099Z,2.40
2023-03-31T13:55:49.992Z,2.30
2023-03-31T13:57:31.864Z,2.17
2023-03-31T13:59:11.174Z,2.30
2023-03-31T14:00:30.107Z,1.93
2023-03-31T14:01:51.557Z,1.80
2023-03-31T14:03:14.055Z,1.80
2023-03-31T14:04:39.050Z,1.70
2023-03-31T14:06:07.389Z,1.57
2023-03-31T14:07:17.066Z,1.50
2023-03-31T14:08:33.768Z,1.60
2023-03-31T14:09:38.592Z,1.42
2023-03-31T14:10:43.107Z,1.60
2023-03-31T14:11:45.380Z,1.50
2023-03-31T14:12:49.161Z,1.35
2023-03-31T14:14:06.895Z,1.40
2023-03-31T14:15:21.586Z,1.27
2023-03-31T14:16:23.976Z,1.60
2023-03-31T14:17:32.087Z,1.50
2023-03-31T14:18:38.977Z,1.60
2023-03-31T14:20:42.585Z,1.90
2023-03-31T14:21:55.053Z,1.63
2023-03-31T14:23:36.924Z,1.40
2023-03-31T14:24:51.277Z,1.55
2023-03-31T14:26:37.899Z,1.50
2023-03-31T14:27:58.841Z,1.55
2023-03-31T14:29:12.870Z,1.52
2023-03-31T14:30:18.052Z,1.30
2023-03-31T14:31:40.210Z,1.23
2023-03-31T14:33:04.093Z,1.30
2023-03-31T14:34:35.130Z,1.25
2023-03-31T14:35:54.415Z,1.40
2023-03-31T14:37:01.942Z,1.30
2023-03-31T14:38:09.779Z,1.17
2023-03-31T14:39:13.265Z,1.27
2023-03-31T14:40:17.625Z,1.23
2023-03-31T14:41:21.575Z,1.10
2023-03-31T14:42:29.395Z,1.13
2023-03-31T14:43:35.245Z,1.33
2023-03-31T14:44:41.556Z,1.48
2023-03-31T14:45:44.103Z,1.30
2023-03-31T14:46:47.102Z,1.30
2023-03-31T14:48:04.378Z,1.50
2023-03-31T14:49:25.321Z,1.30
2023-03-31T14:50:57.140Z,1.50
2023-03-31T14:52:02.223Z,1.40
2023-03-31T14:53:05.159Z,1.40
2023-03-31T14:54:17.613Z,1.30
2023-03-31T14:55:26.554Z,1.30
2023-03-31T14:56:36.465Z,1.30
2023-03-31T14:57:41.682Z,1.40
2023-03-31T14:58:48.490Z,1.65
2023-03-31T14:59:53.380Z,1.35
2023-03-31T15:00:56.225Z,1.20
2023-03-31T15:02:00.540Z,1.20
2023-03-31T15:03:06.003Z,1.20
2023-03-31T15:04:13.338Z,1.20
2023-03-31T15:05:25.013Z,1.13
2023-03-31T15:06:27.478Z,1.20
2023-03-31T15:07:29.978Z,1.30
2023-03-31T15:08:33.569Z,1.20
2023-03-31T15:09:37.686Z,1.00
2023-03-31T15:10:50.339Z,1.10
2023-03-31T15:12:03.185Z,1.10
2023-03-31T15:13:18.921Z,1.33
2023-03-31T15:14:21.353Z,1.10
2023-03-31T15:15:23.797Z,1.13
2023-03-31T15:16:41.878Z,1.40
2023-03-31T15:17:47.376Z,1.23
2023-03-31T15:18:54.415Z,1.20
2023-03-31T15:20:01.310Z,1.10
2023-03-31T15:21:03.687Z,1.20
2023-03-31T15:22:16.560Z,1.50
2023-03-31T15:23:28.769Z,1.42
2023-03-31T15:24:31.944Z,1.48
2023-03-31T15:25:42.028Z,1.20
2023-03-31T15:26:53.428Z,1.10